Time;durP1;ratioP1;P1;durP2;ratioP2;P2;SDS_P1;SDS_P2;PMS_P1;PMS_P2;Temp;Humidity;BMP_temperature;BMP_pressure;BME280_temperature;BME280_humidity;BME280_pressure;Samples;Min_cycle;Max_cycle;Signal;HPM_P1;HPM_P2
2021/08/05 00:02:51;;;;;;;8.73;3.60;;;17.70;97.00;;;;;;6225922;28;20129;-75
2021/08/05 00:05:53;;;;;;;4.97;2.67;;;17.70;97.30;;;;;;6225907;28;20165;-75
2021/08/05 00:08:57;;;;;;;6.28;3.17;;;17.70;97.50;;;;;;6225628;28;20050;-75
2021/08/05 00:11:58;;;;;;;3.53;3.00;;;17.70;97.70;;;;;;6225427;28;20054;-75
2021/08/05 00:15:01;;;;;;;4.28;3.40;;;17.60;97.70;;;;;;6224280;28;20123;-75
2021/08/05 00:18:03;;;;;;;6.13;2.90;;;17.60;97.80;;;;;;6225195;28;20634;-74
2021/08/05 00:21:05;;;;;;;4.45;3.85;;;17.50;97.90;;;;;;6225422;28;20088;-75
2021/08/05 00:24:08;;;;;;;4.47;3.42;;;17.50;98.00;;;;;;6225084;28;20124;-75
2021/08/05 00:27:10;;;;;;;5.97;3.42;;;17.50;98.20;;;;;;6224736;28;20046;-74
2021/08/05 00:30:13;;;;;;;3.30;2.60;;;17.50;98.50;;;;;;6224172;28;20053;-74
2021/08/05 00:33:15;;;;;;;4.15;2.67;;;17.50;98.50;;;;;;6224817;28;20046;-74
2021/08/05 00:36:16;;;;;;;5.95;3.20;;;17.50;98.60;;;;;;6224806;28;20129;-74
2021/08/05 00:39:20;;;;;;;5.22;4.18;;;17.60;98.60;;;;;;6224762;28;20397;-74
2021/08/05 00:42:21;;;;;;;5.20;2.65;;;17.60;98.70;;;;;;6225159;28;20046;-75
2021/08/05 00:45:23;;;;;;;7.43;3.67;;;17.60;98.70;;;;;;6219997;28;20522;-74
2021/08/05 00:48:25;;;;;;;6.28;3.10;;;17.60;98.70;;;;;;6223828;28;20052;-75
2021/08/05 00:51:27;;;;;;;4.60;4.00;;;17.60;98.50;;;;;;6224841;28;20046;-75
2021/08/05 00:54:30;;;;;;;6.40;3.53;;;17.60;98.40;;;;;;6224485;28;20060;-75
2021/08/05 00:57:32;;;;;;;4.13;3.22;;;17.60;98.50;;;;;;6224892;28;20054;-74
2021/08/05 01:00:35;;;;;;;3.92;3.08;;;17.70;98.30;;;;;;6224381;28;20085;-74
2021/08/05 01:03:40;;;;;;;3.20;2.70;;;17.60;98.30;;;;;;6224451;28;20181;-75
2021/08/05 01:06:48;;;;;;;4.38;2.67;;;17.60;98.20;;;;;;6223675;28;20512;-75
2021/08/05 01:10:00;;;;;;;3.90;3.35;;;17.60;98.20;;;;;;6224858;28;20052;-74
2021/08/05 01:13:08;;;;;;;5.22;3.03;;;17.50;98.40;;;;;;6224365;28;20396;-74
2021/08/05 01:16:12;;;;;;;4.28;2.80;;;17.40;98.70;;;;;;6223869;28;20523;-73
2021/08/05 01:19:27;;;;;;;4.90;3.35;;;17.40;99.00;;;;;;6223929;28;20041;-74
2021/08/05 01:22:40;;;;;;;4.20;3.28;;;17.40;99.30;;;;;;6223935;28;20042;-74
2021/08/05 01:25:48;;;;;;;6.25;3.83;;;17.30;99.40;;;;;;6223534;28;20503;-74
2021/08/05 01:28:51;;;;;;;5.75;4.10;;;17.30;99.70;;;;;;6224178;28;20119;-75
2021/08/05 01:31:54;;;;;;;4.15;2.88;;;17.30;99.80;;;;;;6221995;28;20583;-74
2021/08/05 01:34:57;;;;;;;5.88;4.03;;;17.30;99.90;;;;;;6223970;28;20172;-74
2021/08/05 01:38:00;;;;;;;4.07;3.42;;;17.30;99.90;;;;;;6223656;28;20058;-74
2021/08/05 01:41:04;;;;;;;6.30;4.22;;;17.30;99.90;;;;;;6224780;28;20069;-74
2021/08/05 01:44:10;;;;;;;8.27;4.13;;;17.30;99.90;;;;;;6223390;28;20693;-74
2021/08/05 01:47:13;;;;;;;5.05;4.03;;;17.30;99.90;;;;;;6223545;28;20119;-76
2021/08/05 01:50:15;;;;;;;6.05;3.50;;;17.30;99.90;;;;;;6224427;28;20111;-73
2021/08/05 01:53:18;;;;;;;4.28;2.92;;;17.30;99.90;;;;;;6223209;28;20095;-73
2021/08/05 01:56:21;;;;;;;7.70;2.88;;;17.30;99.90;;;;;;6223209;28;20526;-76
2021/08/05 01:59:24;;;;;;;4.40;3.05;;;17.30;99.90;;;;;;6222829;28;20038;-76
2021/08/05 02:02:28;;;;;;;3.47;3.03;;;17.30;99.90;;;;;;6223487;28;20095;-76
2021/08/05 02:05:39;;;;;;;4.63;3.35;;;17.40;99.90;;;;;;6222951;28;20192;-76
2021/08/05 02:08:46;;;;;;;6.97;3.50;;;17.30;99.90;;;;;;6222964;28;20089;-74
2021/08/05 02:11:52;;;;;;;3.58;2.97;;;17.40;99.90;;;;;;6222580;28;20057;-76
2021/08/05 02:14:55;;;;;;;3.72;3.13;;;17.40;99.90;;;;;;6222827;28;20048;-76
2021/08/05 02:17:59;;;;;;;6.22;3.47;;;17.40;99.90;;;;;;6222707;28;20058;-75
2021/08/05 02:21:03;;;;;;;6.25;2.88;;;17.30;99.90;;;;;;6222671;28;20108;-75
2021/08/05 02:24:05;;;;;;;6.05;5.50;;;17.30;99.90;;;;;;6222625;28;20533;-75
2021/08/05 02:27:07;;;;;;;7.20;3.15;;;17.30;99.90;;;;;;6222274;28;20042;-75
2021/08/05 02:30:12;;;;;;;5.47;3.40;;;17.20;99.90;;;;;;6223003;28;20049;-75
2021/08/05 02:33:15;;;;;;;9.18;3.95;;;17.20;99.90;;;;;;6220796;28;20037;-75
2021/08/05 02:36:17;;;;;;;6.68;3.53;;;17.20;99.90;;;;;;6221222;28;20141;-76
2021/08/05 02:39:19;;;;;;;4.75;3.88;;;17.10;99.90;;;;;;6222312;28;20048;-75
2021/08/05 02:42:22;;;;;;;9.68;3.78;;;17.10;99.90;;;;;;6222756;28;20092;-75
2021/08/05 02:45:25;;;;;;;5.18;3.38;;;17.10;99.90;;;;;;6222197;28;20050;-75
2021/08/05 02:48:28;;;;;;;4.70;3.97;;;17.10;99.90;;;;;;6222234;28;20045;-76
2021/08/05 02:51:31;;;;;;;10.02;3.85;;;17.00;99.90;;;;;;6222192;28;20132;-76
2021/08/05 02:54:33;;;;;;;6.95;4.15;;;17.00;99.90;;;;;;6222162;28;20127;-75
2021/08/05 02:57:36;;;;;;;8.38;3.45;;;17.00;99.90;;;;;;6222432;28;20401;-76
2021/08/05 03:00:39;;;;;;;3.63;3.25;;;17.00;99.90;;;;;;6222093;28;20037;-76
2021/08/05 03:03:42;;;;;;;4.40;3.25;;;17.00;99.90;;;;;;6221998;28;20037;-76
2021/08/05 03:06:46;;;;;;;5.53;3.72;;;17.00;99.90;;;;;;6222217;28;20046;-76
2021/08/05 03:09:47;;;;;;;7.13;3.83;;;17.00;99.90;;;;;;6222611;28;20411;-75
2021/08/05 03:12:49;;;;;;;6.40;3.92;;;17.00;99.90;;;;;;6222208;28;20096;-75
2021/08/05 03:15:52;;;;;;;5.28;3.55;;;16.90;99.90;;;;;;6221900;28;20153;-76
2021/08/05 03:18:54;;;;;;;4.32;3.55;;;16.90;99.90;;;;;;6222181;28;20430;-75
2021/08/05 03:21:56;;;;;;;5.38;4.28;;;16.90;99.90;;;;;;6222092;28;20499;-76
2021/08/05 03:24:58;;;;;;;6.28;4.28;;;16.80;99.90;;;;;;6221920;28;20176;-76
2021/08/05 03:28:00;;;;;;;8.93;4.93;;;16.80;99.90;;;;;;6221672;28;20128;-76
2021/08/05 03:31:03;;;;;;;4.82;3.80;;;16.80;99.90;;;;;;6221796;28;20128;-75
2021/08/05 03:34:05;;;;;;;5.53;3.80;;;16.80;99.90;;;;;;6221505;28;20092;-75
2021/08/05 03:37:07;;;;;;;7.57;4.95;;;16.70;99.90;;;;;;6222679;28;20124;-75
2021/08/05 03:40:09;;;;;;;7.45;4.93;;;16.70;99.90;;;;;;6222420;28;20116;-75
2021/08/05 03:43:11;;;;;;;5.82;4.15;;;16.70;99.90;;;;;;6223078;28;20527;-75
2021/08/05 03:46:14;;;;;;;6.15;4.28;;;16.70;99.90;;;;;;6223806;28;20165;-75
2021/08/05 03:49:16;;;;;;;4.03;3.63;;;16.60;99.90;;;;;;6226406;28;20202;-75
2021/08/05 03:52:18;;;;;;;4.43;3.80;;;16.70;99.90;;;;;;6244227;28;20046;-74
2021/08/05 03:55:19;;;;;;;8.70;4.45;;;16.70;99.90;;;;;;6256504;28;20053;-74
2021/08/05 03:58:21;;;;;;;7.85;4.45;;;16.60;99.90;;;;;;6256157;28;20080;-75
2021/08/05 04:01:24;;;;;;;7.97;3.83;;;16.60;99.90;;;;;;6258223;28;20053;-75
2021/08/05 04:04:26;;;;;;;6.35;4.50;;;16.60;99.90;;;;;;6257978;28;20061;-74
2021/08/05 04:07:28;;;;;;;5.70;4.88;;;16.60;99.90;;;;;;6256929;28;20022;-74
2021/08/05 04:10:30;;;;;;;6.00;4.85;;;16.50;99.90;;;;;;6257854;28;20034;-74
2021/08/05 04:13:31;;;;;;;6.65;5.88;;;16.50;99.90;;;;;;6257798;28;20060;-74
2021/08/05 04:16:46;;;;;;;8.32;6.30;;;16.50;99.90;;;;;;6256707;28;20038;-75
2021/08/05 04:19:48;;;;;;;10.00;4.85;;;16.50;99.90;;;;;;6257136;28;20030;-75
2021/08/05 04:22:50;;;;;;;12.23;4.70;;;16.70;99.90;;;;;;6256405;28;20362;-75
2021/08/05 04:25:52;;;;;;;6.18;4.68;;;16.80;99.90;;;;;;6255690;28;20050;-75
2021/08/05 04:28:54;;;;;;;8.15;5.20;;;16.90;99.90;;;;;;6240212;28;20081;-75
2021/08/05 04:31:57;;;;;;;11.70;4.05;;;17.00;99.90;;;;;;6225087;28;20056;-74
2021/08/05 04:34:59;;;;;;;11.68;10.55;;;17.00;99.90;;;;;;6223738;28;20415;-74
2021/08/05 04:38:02;;;;;;;10.77;7.55;;;17.10;99.90;;;;;;6224992;28;20062;-74
2021/08/05 04:41:03;;;;;;;5.85;5.32;;;17.10;99.90;;;;;;6224531;28;20131;-75
2021/08/05 04:44:06;;;;;;;5.85;5.22;;;17.10;99.90;;;;;;6224442;28;20099;-74
2021/08/05 04:47:09;;;;;;;11.63;4.53;;;17.10;99.90;;;;;;6223981;28;20536;-74
2021/08/05 04:50:11;;;;;;;6.35;4.85;;;17.30;99.90;;;;;;6224528;28;20085;-75
2021/08/05 04:53:16;;;;;;;5.00;3.70;;;17.30;99.90;;;;;;6224215;28;20046;-75
2021/08/05 04:56:18;;;;;;;8.57;4.72;;;17.40;99.90;;;;;;6223850;28;20046;-74
2021/08/05 04:59:20;;;;;;;4.80;4.22;;;17.40;99.90;;;;;;6223375;28;20120;-75
2021/08/05 05:02:23;;;;;;;5.05;4.30;;;17.50;99.90;;;;;;6224200;28;20165;-75
2021/08/05 05:05:27;;;;;;;4.78;3.67;;;17.60;99.90;;;;;;6223954;28;20105;-75
2021/08/05 05:08:29;;;;;;;6.25;3.50;;;17.70;99.90;;;;;;6223102;28;20539;-75
2021/08/05 05:11:31;;;;;;;5.95;4.03;;;17.90;99.90;;;;;;6223825;28;20177;-74
2021/08/05 05:14:32;;;;;;;5.65;3.90;;;18.00;99.90;;;;;;6224076;28;20064;-75
2021/08/05 05:17:36;;;;;;;5.38;3.35;;;18.10;99.80;;;;;;6223792;28;20054;-74
2021/08/05 05:20:39;;;;;;;5.22;3.70;;;18.20;99.50;;;;;;6223664;28;20176;-75
2021/08/05 05:23:40;;;;;;;4.97;4.03;;;18.30;99.00;;;;;;6223587;28;20152;-75
2021/08/05 05:26:42;;;;;;;9.25;4.93;;;18.30;98.60;;;;;;6223241;28;20510;-75
2021/08/05 05:29:44;;;;;;;7.72;4.00;;;18.50;98.10;;;;;;6223773;28;20478;-75
2021/08/05 05:32:47;;;;;;;4.30;3.90;;;18.50;97.70;;;;;;6223489;28;20180;-75
2021/08/05 05:35:49;;;;;;;5.13;3.85;;;18.50;97.30;;;;;;6221922;28;20414;-75
2021/08/05 05:38:51;;;;;;;5.55;3.47;;;18.50;97.10;;;;;;6223358;28;20126;-75
2021/08/05 05:41:53;;;;;;;6.43;3.78;;;18.60;96.90;;;;;;6223363;28;20049;-75
2021/08/05 05:44:55;;;;;;;7.68;3.55;;;18.70;96.70;;;;;;6222978;28;20046;-75
2021/08/05 05:48:00;;;;;;;4.93;2.78;;;18.70;96.50;;;;;;6222666;28;20052;-75
2021/08/05 05:51:02;;;;;;;4.47;3.75;;;18.70;96.30;;;;;;6223090;28;20049;-75
2021/08/05 05:54:05;;;;;;;5.60;3.17;;;18.80;96.10;;;;;;6223604;28;20077;-75
2021/08/05 05:57:06;;;;;;;4.05;3.30;;;18.90;95.60;;;;;;6222472;28;20070;-75
2021/08/05 06:00:09;;;;;;;6.32;2.80;;;19.00;95.50;;;;;;6222848;28;20048;-75
2021/08/05 06:03:12;;;;;;;4.13;3.10;;;19.00;95.20;;;;;;6220506;28;20149;-74
2021/08/05 06:06:14;;;;;;;3.47;3.05;;;19.10;95.00;;;;;;6216421;28;20050;-75
2021/08/05 06:09:16;;;;;;;4.85;2.72;;;19.10;94.70;;;;;;6222335;28;20050;-75
2021/08/05 06:12:18;;;;;;;3.30;2.78;;;19.20;94.40;;;;;;6222099;28;20037;-75
2021/08/05 06:15:20;;;;;;;3.25;2.70;;;19.30;93.90;;;;;;6222210;28;20052;-73
2021/08/05 06:18:23;;;;;;;3.90;3.25;;;19.50;93.40;;;;;;6222592;28;20097;-75
2021/08/05 06:21:25;;;;;;;3.80;2.60;;;19.70;92.70;;;;;;6222084;28;20484;-75
2021/08/05 06:24:27;;;;;;;4.90;2.88;;;19.90;91.90;;;;;;6221862;28;20049;-75
2021/08/05 06:27:29;;;;;;;3.60;2.47;;;20.10;91.10;;;;;;6221900;28;20112;-75
2021/08/05 06:30:31;;;;;;;4.32;3.20;;;20.30;90.30;;;;;;6221672;28;20092;-75
2021/08/05 06:33:35;;;;;;;5.38;3.55;;;20.50;88.50;;;;;;6222104;28;20050;-75
2021/08/05 06:36:37;;;;;;;6.07;2.28;;;20.60;86.10;;;;;;6220483;28;20054;-75
2021/08/05 06:39:39;;;;;;;2.80;2.53;;;20.70;85.60;;;;;;6221693;28;20042;-75
2021/08/05 06:42:40;;;;;;;5.28;2.85;;;20.80;84.40;;;;;;6222328;28;20125;-75
2021/08/05 06:45:42;;;;;;;3.40;2.50;;;21.00;83.10;;;;;;6221928;28;20049;-75
2021/08/05 06:48:45;;;;;;;5.75;1.85;;;21.10;82.30;;;;;;6221756;28;20427;-75
2021/08/05 06:51:47;;;;;;;3.03;2.03;;;21.40;81.40;;;;;;6221381;28;20129;-75
2021/08/05 06:54:49;;;;;;;2.22;2.03;;;21.50;80.10;;;;;;6221551;28;20136;-75
2021/08/05 06:57:51;;;;;;;3.10;2.20;;;21.60;78.40;;;;;;6222027;28;20054;-75
2021/08/05 07:00:53;;;;;;;2.40;2.03;;;21.70;77.80;;;;;;6221331;28;20085;-75
2021/08/05 07:03:58;;;;;;;7.65;3.00;;;21.80;77.20;;;;;;6221385;28;20176;-76
2021/08/05 07:06:59;;;;;;;3.03;2.15;;;22.00;76.30;;;;;;6221190;28;20042;-75
2021/08/05 07:10:02;;;;;;;2.78;2.15;;;22.00;75.80;;;;;;6222042;28;20052;-75
2021/08/05 07:13:05;;;;;;;3.05;2.75;;;22.10;74.70;;;;;;6221168;28;20034;-76
2021/08/05 07:16:07;;;;;;;3.45;2.67;;;22.20;74.40;;;;;;6221211;28;20558;-75
2021/08/05 07:19:10;;;;;;;5.70;2.95;;;22.30;74.20;;;;;;6221607;28;20124;-75
2021/08/05 07:22:12;;;;;;;2.63;2.15;;;22.50;73.50;;;;;;6221858;28;20172;-76
2021/08/05 07:25:16;;;;;;;5.40;2.72;;;22.70;73.50;;;;;;6226268;28;20050;-75
2021/08/05 07:28:18;;;;;;;3.30;2.15;;;22.90;72.10;;;;;;6226008;28;20132;-75
2021/08/05 07:31:20;;;;;;;3.53;1.92;;;23.00;71.60;;;;;;6225877;28;20045;-76
2021/08/05 07:34:23;;;;;;;3.45;2.10;;;23.20;70.30;;;;;;6226557;28;20558;-75
2021/08/05 07:37:25;;;;;;;2.30;2.10;;;23.30;69.80;;;;;;6218846;28;20103;-75
2021/08/05 07:40:26;;;;;;;2.72;1.83;;;23.50;69.10;;;;;;6225430;28;20054;-75
2021/08/05 07:43:28;;;;;;;3.80;2.00;;;23.70;67.70;;;;;;6225996;28;20123;-75
2021/08/05 07:46:30;;;;;;;3.67;2.13;;;23.80;67.10;;;;;;6225105;28;20054;-76
2021/08/05 07:49:33;;;;;;;5.60;2.38;;;23.80;66.70;;;;;;6226351;28;20064;-76
2021/08/05 07:52:35;;;;;;;2.45;2.17;;;23.80;66.40;;;;;;6225363;28;20126;-75
2021/08/05 07:55:37;;;;;;;4.55;2.15;;;23.90;65.80;;;;;;6225303;28;20046;-75
2021/08/05 07:58:39;;;;;;;2.67;2.25;;;24.10;65.70;;;;;;6225166;28;20495;-75
2021/08/05 08:01:41;;;;;;;3.38;2.42;;;24.10;66.10;;;;;;6225920;28;20054;-75
2021/08/05 08:04:44;;;;;;;4.80;1.77;;;24.10;65.60;;;;;;6225315;28;20512;-75
2021/08/05 08:07:46;;;;;;;4.57;2.55;;;24.20;65.50;;;;;;6224696;28;20054;-75
2021/08/05 08:10:48;;;;;;;2.78;1.77;;;24.30;64.70;;;;;;6224909;28;20054;-75
2021/08/05 08:13:50;;;;;;;4.38;2.00;;;24.30;65.20;;;;;;6225052;28;20419;-75
2021/08/05 08:16:52;;;;;;;3.35;2.42;;;24.40;64.00;;;;;;6224752;28;20527;-75
2021/08/05 08:19:55;;;;;;;2.50;1.77;;;24.60;63.90;;;;;;6224935;28;20116;-75
2021/08/05 08:22:57;;;;;;;2.42;2.22;;;24.90;62.90;;;;;;6224799;28;20475;-75
2021/08/05 08:25:59;;;;;;;2.85;2.30;;;25.00;61.60;;;;;;6225212;28;20096;-75
2021/08/05 08:29:00;;;;;;;3.08;1.50;;;25.40;61.40;;;;;;6224948;28;20127;-75
2021/08/05 08:32:02;;;;;;;2.38;2.05;;;25.50;60.80;;;;;;6224483;28;20069;-75
2021/08/05 08:35:07;;;;;;;3.20;2.42;;;25.50;59.70;;;;;;6223322;28;20124;-75
2021/08/05 08:38:09;;;;;;;2.72;1.50;;;25.60;59.10;;;;;;6223213;28;20590;-75
2021/08/05 08:41:13;;;;;;;2.47;2.28;;;25.60;59.80;;;;;;6201178;28;20051;-75
2021/08/05 08:44:14;;;;;;;4.55;2.20;;;25.70;59.00;;;;;;6200113;28;20512;-75
2021/08/05 08:47:17;;;;;;;1.77;1.60;;;25.90;57.80;;;;;;6199545;28;20046;-76
2021/08/05 08:50:24;;;;;;;3.55;1.98;;;25.90;57.60;;;;;;6201253;28;20050;-75
2021/08/05 08:53:30;;;;;;;3.47;2.60;;;25.70;58.00;;;;;;6199679;28;20042;-75
2021/08/05 08:56:33;;;;;;;3.42;1.60;;;25.60;57.80;;;;;;6199796;28;20046;-74
2021/08/05 08:59:35;;;;;;;3.33;2.47;;;25.50;59.20;;;;;;6199411;28;20540;-74
2021/08/05 09:02:37;;;;;;;2.25;1.65;;;25.60;57.60;;;;;;6201226;28;20113;-77
2021/08/05 09:05:40;;;;;;;2.67;1.95;;;25.60;57.50;;;;;;6200603;28;20052;-75
2021/08/05 09:08:42;;;;;;;3.42;2.25;;;25.70;57.60;;;;;;6199629;28;20428;-76
2021/08/05 09:11:44;;;;;;;3.47;2.38;;;26.00;58.10;;;;;;6199663;28;20177;-76
2021/08/05 09:14:48;;;;;;;2.88;1.98;;;26.00;57.70;;;;;;6219081;28;20053;-75
2021/08/05 09:17:50;;;;;;;3.85;2.45;;;25.90;57.90;;;;;;6223930;28;20133;-74
2021/08/05 09:21:14;;;;;;;2.65;1.80;;;26.00;57.80;;;;;;6223615;28;20116;-74
2021/08/05 09:24:16;;;;;;;2.10;1.80;;;26.10;57.90;;;;;;6223741;28;20042;-75
2021/08/05 09:27:31;;;;;;;3.97;2.25;;;26.20;57.70;;;;;;6223397;28;20077;-74
2021/08/05 09:30:37;;;;;;;3.47;1.92;;;26.20;56.90;;;;;;6223639;28;20081;-74
2021/08/05 09:33:39;;;;;;;1.92;1.73;;;26.20;57.10;;;;;;6224030;28;20554;-74
2021/08/05 09:36:43;;;;;;;4.03;2.22;;;26.30;57.70;;;;;;6223095;28;20046;-74
2021/08/05 09:39:45;;;;;;;1.50;1.40;;;26.30;56.30;;;;;;6223708;28;20183;-74
2021/08/05 09:42:55;;;;;;;2.65;1.92;;;26.40;56.20;;;;;;6223701;28;20166;-74
2021/08/05 09:45:58;;;;;;;2.72;1.67;;;26.60;56.90;;;;;;6223117;28;20064;-74
2021/08/05 09:49:00;;;;;;;2.20;1.90;;;26.80;56.00;;;;;;6222958;28;20129;-73
2021/08/05 09:52:06;;;;;;;5.82;2.00;;;27.00;55.50;;;;;;6222944;28;20050;-74
2021/08/05 09:55:10;;;;;;;4.22;1.88;;;27.20;55.40;;;;;;6223041;28;20083;-74
2021/08/05 09:58:12;;;;;;;4.15;1.75;;;27.20;55.50;;;;;;6223069;28;20050;-73
2021/08/05 10:01:13;;;;;;;2.45;1.88;;;27.20;54.90;;;;;;6222685;28;20428;-74
2021/08/05 10:04:25;;;;;;;4.30;1.65;;;27.00;55.20;;;;;;6222804;28;20049;-74
2021/08/05 10:07:40;;;;;;;3.80;1.83;;;26.80;55.00;;;;;;6223019;28;20045;-73
2021/08/05 10:10:52;;;;;;;2.72;2.42;;;26.50;56.40;;;;;;6222446;28;20204;-74
2021/08/05 10:13:54;;;;;;;2.60;2.20;;;26.40;57.30;;;;;;6223436;28;20173;-74
2021/08/05 10:16:56;;;;;;;3.17;2.67;;;26.40;57.40;;;;;;6222143;28;20095;-74
2021/08/05 10:19:59;;;;;;;2.10;1.80;;;26.50;56.70;;;;;;6222141;28;20511;-74
2021/08/05 10:23:02;;;;;;;1.98;1.85;;;26.60;56.80;;;;;;6222471;28;20045;-74
2021/08/05 10:26:06;;;;;;;2.88;2.10;;;26.80;57.20;;;;;;6222754;28;20185;-74
2021/08/05 10:29:08;;;;;;;2.33;1.60;;;26.90;55.70;;;;;;6222114;28;20108;-74
2021/08/05 10:32:12;;;;;;;2.78;1.88;;;27.20;55.40;;;;;;6222343;28;20111;-74
2021/08/05 10:35:16;;;;;;;3.00;1.90;;;27.40;55.00;;;;;;6221967;28;20172;-74
2021/08/05 10:38:20;;;;;;;2.10;1.55;;;27.70;54.40;;;;;;6222499;28;20302;-74
2021/08/05 10:41:23;;;;;;;1.35;1.25;;;27.70;54.20;;;;;;6222113;28;20056;-73
2021/08/05 10:44:26;;;;;;;2.00;1.60;;;27.70;54.10;;;;;;6221988;28;20047;-74
2021/08/05 10:47:29;;;;;;;2.08;1.33;;;27.60;54.60;;;;;;6221640;28;20464;-74
2021/08/05 10:50:37;;;;;;;2.17;1.70;;;27.70;54.10;;;;;;6221926;28;20054;-74
2021/08/05 10:53:45;;;;;;;1.98;1.50;;;27.80;53.50;;;;;;6222592;28;20064;-74
2021/08/05 10:56:47;;;;;;;4.47;1.10;;;27.80;53.80;;;;;;6221382;28;20050;-74
2021/08/05 11:00:05;;;;;;;1.25;1.15;;;27.90;53.30;;;;;;6221682;28;20045;-74
2021/08/05 11:03:07;;;;;;;1.50;1.15;;;28.00;51.80;;;;;;6221859;28;20042;-74
2021/08/05 11:06:29;;;;;;;1.73;1.50;;;27.90;52.70;;;;;;6222726;28;20149;-74
2021/08/05 11:09:34;;;;;;;1.65;1.52;;;27.90;52.10;;;;;;6222451;28;20064;-74
2021/08/05 11:12:41;;;;;;;2.40;1.50;;;27.70;52.30;;;;;;6221514;28;20423;-74
2021/08/05 11:15:51;;;;;;;1.02;0.93;;;27.50;53.10;;;;;;6221267;28;20396;-74
2021/08/05 11:19:20;;;;;;;2.53;1.35;;;27.30;54.70;;;;;;6221657;28;20057;-74
2021/08/05 11:22:52;;;;;;;2.17;1.30;;;27.40;54.30;;;;;;6222131;28;20135;-74
2021/08/05 11:26:06;;;;;;;4.63;1.85;;;27.50;54.70;;;;;;6221404;28;20046;-74
2021/08/05 11:29:28;;;;;;;2.47;1.35;;;27.70;53.60;;;;;;6221362;28;20188;-74
2021/08/05 11:32:38;;;;;;;2.42;1.67;;;27.80;53.50;;;;;;6221649;28;20046;-74
2021/08/05 11:35:39;;;;;;;2.22;1.20;;;28.10;53.70;;;;;;6220632;28;20132;-74
2021/08/05 11:39:09;;;;;;;3.30;1.55;;;28.10;52.20;;;;;;6221233;28;20093;-74
2021/08/05 11:42:20;;;;;;;1.73;1.45;;;28.10;53.20;;;;;;6221687;28;20510;-74
2021/08/05 11:45:22;;;;;;;1.65;1.15;;;27.90;52.30;;;;;;6221201;28;20042;-74
2021/08/05 11:48:35;;;;;;;3.65;1.60;;;28.00;52.80;;;;;;6220414;28;20120;-74
2021/08/05 11:51:37;;;;;;;1.10;0.70;;;28.00;53.00;;;;;;6221164;28;20046;-74
2021/08/05 11:54:41;;;;;;;1.70;1.13;;;28.00;51.20;;;;;;6220490;28;20181;-74
2021/08/05 11:57:46;;;;;;;1.45;1.17;;;28.10;51.10;;;;;;6221003;28;20627;-74
2021/08/05 12:00:48;;;;;;;1.17;0.90;;;28.20;50.40;;;;;;6221007;28;20132;-74
2021/08/05 12:03:50;;;;;;;0.93;0.82;;;27.90;51.10;;;;;;6220945;28;20042;-74
2021/08/05 12:06:52;;;;;;;1.20;1.05;;;27.90;51.70;;;;;;6220471;28;20115;-74
2021/08/05 12:10:07;;;;;;;1.15;0.77;;;27.80;51.00;;;;;;6223855;28;20095;-74
2021/08/05 12:13:16;;;;;;;2.00;1.15;;;27.90;51.00;;;;;;6224899;28;20077;-73
2021/08/05 12:16:18;;;;;;;1.73;1.02;;;27.90;51.20;;;;;;6224936;28;20048;-73
2021/08/05 12:19:20;;;;;;;1.40;1.23;;;27.60;51.60;;;;;;6225028;28;20514;-74
2021/08/05 12:22:29;;;;;;;3.08;1.08;;;27.70;51.30;;;;;;6225418;28;20132;-74
2021/08/05 12:25:36;;;;;;;1.50;1.27;;;27.80;50.80;;;;;;6225045;28;20177;-74
2021/08/05 12:28:41;;;;;;;2.28;0.70;;;27.90;50.80;;;;;;6224966;28;20046;-74
2021/08/05 12:31:44;;;;;;;1.30;0.90;;;27.90;51.30;;;;;;6224892;28;20127;-74
2021/08/05 12:34:47;;;;;;;2.40;1.20;;;28.00;52.00;;;;;;6224478;28;20046;-73
2021/08/05 12:38:00;;;;;;;1.48;0.98;;;28.10;51.30;;;;;;6225027;28;20054;-74
2021/08/05 12:41:02;;;;;;;3.08;1.10;;;28.10;50.50;;;;;;6224591;28;20132;-74
2021/08/05 12:44:10;;;;;;;1.58;0.70;;;28.10;51.10;;;;;;6224791;28;20124;-74
2021/08/05 12:47:13;;;;;;;0.82;0.50;;;28.20;51.50;;;;;;6224002;28;20052;-74
2021/08/05 12:50:14;;;;;;;2.90;1.02;;;28.30;50.60;;;;;;6224887;28;20138;-74
2021/08/05 12:53:28;;;;;;;2.60;0.80;;;28.20;50.40;;;;;;6224144;28;20049;-74
2021/08/05 12:56:43;;;;;;;1.10;0.80;;;28.30;51.20;;;;;;6223982;28;20050;-74
2021/08/05 12:59:50;;;;;;;1.52;0.70;;;28.30;49.90;;;;;;6223875;28;20508;-74
2021/08/05 13:02:57;;;;;;;1.33;0.77;;;28.40;49.80;;;;;;6224402;28;20124;-74
2021/08/05 13:06:00;;;;;;;1.30;0.87;;;28.50;49.70;;;;;;6223860;28;20052;-74
2021/08/05 13:09:08;;;;;;;1.10;1.00;;;28.60;49.80;;;;;;6224001;28;20050;-73
2021/08/05 13:12:21;;;;;;;4.18;0.77;;;28.70;50.10;;;;;;6224098;28;20061;-74
2021/08/05 13:15:32;;;;;;;1.02;0.95;;;28.70;49.80;;;;;;6199639;28;20748;-74
2021/08/05 13:18:34;;;;;;;1.23;0.98;;;28.70;50.60;;;;;;6199044;28;20543;-74
2021/08/05 13:21:50;;;;;;;1.85;0.95;;;28.60;49.40;;;;;;6199341;28;20082;-74
2021/08/05 13:24:58;;;;;;;1.10;0.90;;;28.40;50.40;;;;;;6199300;28;20479;-74
2021/08/05 13:28:11;;;;;;;1.00;0.90;;;28.20;50.60;;;;;;6198962;28;20413;-73
2021/08/05 13:31:14;;;;;;;3.35;1.20;;;28.10;52.30;;;;;;6199085;28;20508;-74
2021/08/05 13:34:16;;;;;;;2.03;0.90;;;28.20;51.40;;;;;;6199312;28;20631;-74
2021/08/05 13:37:24;;;;;;;1.10;0.90;;;28.50;51.20;;;;;;6198526;28;20050;-74
2021/08/05 13:40:26;;;;;;;1.25;0.95;;;28.80;50.70;;;;;;6198986;28;20053;-74
2021/08/05 13:43:28;;;;;;;1.42;1.02;;;29.00;50.40;;;;;;6198883;28;20406;-74
2021/08/05 13:46:31;;;;;;;3.40;1.00;;;29.00;49.90;;;;;;6198155;28;20562;-74
2021/08/05 13:49:33;;;;;;;0.90;0.90;;;29.10;49.60;;;;;;6198916;28;20635;-73
2021/08/05 13:52:35;;;;;;;3.25;1.20;;;29.30;49.30;;;;;;6198919;28;20104;-74
2021/08/05 13:55:38;;;;;;;1.15;0.98;;;29.30;49.90;;;;;;6198402;28;20050;-74
2021/08/05 13:58:40;;;;;;;1.10;1.00;;;29.10;49.70;;;;;;6198561;28;20100;-74
2021/08/05 14:01:43;;;;;;;3.20;1.15;;;28.90;49.10;;;;;;6198893;28;20054;-73
2021/08/05 14:04:45;;;;;;;2.03;0.60;;;28.80;49.60;;;;;;6198575;28;20046;-74
2021/08/05 14:07:49;;;;;;;0.98;0.60;;;28.60;49.60;;;;;;6198100;28;20074;-74
2021/08/05 14:10:50;;;;;;;5.80;1.88;;;28.50;50.10;;;;;;6198348;28;20443;-74
2021/08/05 14:13:52;;;;;;;1.02;0.88;;;28.50;50.70;;;;;;6198582;28;20128;-74
2021/08/05 14:16:55;;;;;;;1.45;1.17;;;28.40;48.90;;;;;;6197920;28;20050;-74
2021/08/05 14:19:57;;;;;;;1.33;0.98;;;28.40;49.20;;;;;;6197819;28;20515;-74
2021/08/05 14:22:59;;;;;;;4.65;1.30;;;28.40;49.90;;;;;;6198210;28;20042;-74
2021/08/05 14:26:01;;;;;;;3.03;1.85;;;28.10;50.60;;;;;;6198167;28;20043;-74
2021/08/05 14:29:03;;;;;;;1.52;0.85;;;28.00;51.00;;;;;;6197915;28;20096;-74
2021/08/05 14:32:08;;;;;;;1.25;0.90;;;28.00;51.50;;;;;;6197399;28;20121;-74
2021/08/05 14:35:10;;;;;;;2.72;0.90;;;27.90;52.30;;;;;;6197492;28;20038;-74
2021/08/05 14:38:12;;;;;;;2.70;1.10;;;27.90;53.00;;;;;;6197760;28;20423;-74
2021/08/05 14:41:14;;;;;;;1.83;1.55;;;28.10;52.80;;;;;;6197630;28;20544;-74
2021/08/05 14:44:16;;;;;;;1.48;1.20;;;28.10;51.70;;;;;;6197638;28;20504;-74
2021/08/05 14:47:19;;;;;;;2.67;1.40;;;28.00;51.70;;;;;;6197228;28;20116;-74
2021/08/05 14:50:21;;;;;;;3.13;0.90;;;27.90;52.50;;;;;;6198448;28;20489;-74
2021/08/05 14:53:23;;;;;;;1.60;1.27;;;27.60;54.00;;;;;;6197561;28;20568;-74
2021/08/05 14:56:25;;;;;;;1.90;1.10;;;27.50;54.10;;;;;;6197275;28;20189;-74
2021/08/05 14:59:27;;;;;;;2.88;1.50;;;27.60;53.20;;;;;;6197569;28;20479;-74
2021/08/05 15:02:30;;;;;;;2.25;1.10;;;27.60;53.60;;;;;;6197724;28;20054;-74
2021/08/05 15:05:32;;;;;;;1.25;0.98;;;27.60;54.50;;;;;;6197722;28;20085;-73
2021/08/05 15:08:34;;;;;;;1.45;1.05;;;27.50;53.70;;;;;;6197320;28;20082;-73
2021/08/05 15:11:36;;;;;;;1.35;0.88;;;27.60;54.10;;;;;;6197638;28;20054;-74
2021/08/05 15:14:38;;;;;;;0.75;0.63;;;27.70;54.10;;;;;;6215719;28;20137;-74
2021/08/05 15:17:41;;;;;;;0.95;0.85;;;27.50;52.80;;;;;;6221871;28;20099;-73
2021/08/05 15:20:43;;;;;;;2.13;0.80;;;27.40;53.90;;;;;;6221519;28;20516;-74
2021/08/05 15:23:45;;;;;;;1.05;0.68;;;27.20;54.00;;;;;;6221937;28;20129;-74
2021/08/05 15:26:47;;;;;;;3.65;1.52;;;27.00;54.60;;;;;;6221345;28;20129;-74
2021/08/05 15:29:49;;;;;;;1.60;0.80;;;26.80;55.30;;;;;;6221771;28;20138;-73
2021/08/05 15:32:52;;;;;;;1.73;0.80;;;26.60;55.50;;;;;;6221583;28;20058;-74
2021/08/05 15:35:54;;;;;;;0.85;0.70;;;26.30;55.60;;;;;;6221051;28;20062;-74
2021/08/05 15:38:56;;;;;;;1.15;1.00;;;26.10;55.90;;;;;;6221571;28;20108;-74
2021/08/05 15:41:57;;;;;;;2.42;1.63;;;25.80;56.70;;;;;;6221868;28;20140;-74
2021/08/05 15:44:59;;;;;;;1.70;1.05;;;25.60;57.90;;;;;;6224163;28;20516;-73
2021/08/05 15:48:02;;;;;;;1.38;1.27;;;25.50;58.10;;;;;;6225410;28;21171;-75
2021/08/05 15:51:05;;;;;;;1.17;1.00;;;25.30;57.80;;;;;;6225778;28;20415;-74
2021/08/05 15:54:08;;;;;;;1.75;1.10;;;25.20;57.80;;;;;;6226302;28;20082;-75
2021/08/05 15:57:10;;;;;;;2.15;1.48;;;25.20;57.80;;;;;;6225365;28;20053;-74